createdAt,value
2018-02-09T00:01:56.643Z,74.90
2018-02-09T00:04:25.711Z,74.40
2018-02-09T00:06:54.050Z,74.40
2018-02-09T00:09:22.337Z,73.70
2018-02-09T00:11:50.666Z,73.10
2018-02-09T00:14:19.775Z,72.60
2018-02-09T00:16:48.158Z,72.40
2018-02-09T00:19:16.558Z,72.40
2018-02-09T00:21:45.071Z,72.90
2018-02-09T00:24:13.588Z,73.50
2018-02-09T00:26:42.581Z,73.80
2018-02-09T00:29:11.908Z,74.10
2018-02-09T00:31:41.666Z,73.60
2018-02-09T00:34:11.443Z,73.90
2018-02-09T00:36:39.990Z,73.80
2018-02-09T00:39:08.414Z,74.00
2018-02-09T00:41:36.846Z,74.30
2018-02-09T00:44:05.906Z,74.50
2018-02-09T00:46:34.258Z,74.50
2018-02-09T00:49:03.465Z,75.20
2018-02-09T00:51:31.847Z,74.40
2018-02-09T00:54:01.268Z,74.70
2018-02-09T00:56:29.781Z,74.70
2018-02-09T00:58:58.181Z,74.50
2018-02-09T01:01:26.485Z,74.50
2018-02-09T01:03:54.819Z,73.00
2018-02-09T01:06:23.147Z,73.00
2018-02-09T01:08:52.243Z,74.00
2018-02-09T01:11:22.064Z,74.40
2018-02-09T01:13:50.410Z,75.00
2018-02-09T01:16:19.471Z,74.60
2018-02-09T01:18:47.820Z,74.60
2018-02-09T01:21:17.367Z,73.80
2018-02-09T01:23:46.025Z,73.80
2018-02-09T01:26:15.060Z,72.50
2018-02-09T01:28:43.718Z,71.50
2018-02-09T01:31:13.273Z,71.20
2018-02-09T01:33:41.737Z,71.80
2018-02-09T01:36:10.200Z,72.90
2018-02-09T01:38:38.760Z,73.60
2018-02-09T01:41:08.559Z,74.40
2018-02-09T01:43:36.883Z,74.40
2018-02-09T01:46:05.270Z,74.70
2018-02-09T01:48:33.663Z,75.00
2018-02-09T01:51:03.154Z,73.90
2018-02-09T01:53:31.840Z,73.90
2018-02-09T01:56:00.297Z,73.60
2018-02-09T01:58:28.655Z,72.80
2018-02-09T02:00:57.011Z,72.30
2018-02-09T02:03:25.308Z,71.60
2018-02-09T02:05:53.635Z,71.70
2018-02-09T02:08:22.730Z,73.70
2018-02-09T02:10:51.022Z,73.20
2018-02-09T02:13:19.735Z,73.90
2018-02-09T02:15:48.236Z,74.00
2018-02-09T02:18:16.675Z,74.40
2018-02-09T02:20:45.454Z,74.50
2018-02-09T02:23:14.703Z,73.60
2018-02-09T02:25:44.280Z,73.20
2018-02-09T02:28:14.560Z,73.60
2018-02-09T02:30:43.290Z,73.10
2018-02-09T02:33:12.806Z,74.00
2018-02-09T02:35:41.742Z,73.90
2018-02-09T02:38:12.937Z,74.70
2018-02-09T02:40:41.877Z,74.60
2018-02-09T02:43:10.370Z,74.70
2018-02-09T02:45:39.988Z,74.60
2018-02-09T02:48:08.690Z,74.50
2018-02-09T02:50:37.781Z,73.90
2018-02-09T02:53:07.014Z,72.40
2018-02-09T02:55:35.590Z,72.30
2018-02-09T02:58:03.943Z,72.70
2018-02-09T03:00:33.027Z,73.00
2018-02-09T03:03:02.145Z,73.20
2018-02-09T03:05:30.756Z,73.70
2018-02-09T03:07:59.205Z,73.60
2018-02-09T03:10:27.663Z,73.80
2018-02-09T03:12:55.964Z,74.10
2018-02-09T03:15:24.275Z,74.50
2018-02-09T03:17:52.611Z,74.70
2018-02-09T03:20:20.956Z,75.00
2018-02-09T03:22:49.299Z,74.30
2018-02-09T03:25:17.786Z,74.50
2018-02-09T03:27:46.600Z,75.10
2018-02-09T03:30:16.204Z,74.40
2018-02-09T03:32:45.018Z,74.40
2018-02-09T03:35:13.493Z,74.70
2018-02-09T03:37:43.137Z,74.10
2018-02-09T03:40:12.659Z,74.00
2018-02-09T03:42:42.227Z,73.00
2018-02-09T03:45:10.819Z,73.00
2018-02-09T03:47:39.809Z,73.60
2018-02-09T03:50:09.808Z,74.00
2018-02-09T03:52:38.946Z,74.20
2018-02-09T03:55:08.411Z,73.70
2018-02-09T03:57:37.694Z,72.70
2018-02-09T04:00:09.791Z,73.50
2018-02-09T04:02:40.101Z,73.40
2018-02-09T04:05:10.167Z,73.80
2018-02-09T04:07:38.527Z,73.80
2018-02-09T04:10:07.097Z,74.10
2018-02-09T04:12:35.950Z,74.30
2018-02-09T04:15:04.890Z,74.10
2018-02-09T04:17:34.924Z,74.10
2018-02-09T04:20:05.143Z,74.30
2018-02-09T04:22:33.593Z,74.30
2018-02-09T04:25:02.542Z,74.00
2018-02-09T04:27:31.997Z,73.90
2018-02-09T04:30:01.667Z,73.90
2018-02-09T04:32:31.414Z,73.90
2018-02-09T04:35:01.158Z,73.80
2018-02-09T04:37:30.832Z,73.10
2018-02-09T04:40:00.873Z,73.10
2018-02-09T04:42:31.274Z,72.60
2018-02-09T04:45:00.649Z,72.60
2018-02-09T04:47:29.716Z,72.40
2018-02-09T04:49:58.735Z,72.40
2018-02-09T04:52:28.234Z,72.50
2018-02-09T04:54:57.404Z,72.50
2018-02-09T04:57:26.564Z,73.20
2018-02-09T04:59:55.467Z,73.60
2018-02-09T05:02:24.250Z,73.60
2018-02-09T05:04:53.926Z,73.90
2018-02-09T05:07:24.720Z,73.80
2018-02-09T05:09:55.078Z,73.00
2018-02-09T05:12:26.242Z,73.00
2018-02-09T05:14:56.116Z,72.40
2018-02-09T05:17:26.290Z,73.00
2018-02-09T05:19:55.482Z,73.00
2018-02-09T05:22:25.057Z,73.60
2018-02-09T05:24:53.979Z,73.90
2018-02-09T05:27:23.654Z,73.80
2018-02-09T05:29:53.894Z,73.00
2018-02-09T05:32:25.214Z,71.70
2018-02-09T05:34:57.153Z,72.40
2018-02-09T05:37:28.442Z,72.40
2018-02-09T05:39:59.688Z,73.70
2018-02-09T05:42:28.964Z,73.70
2018-02-09T05:44:58.640Z,73.30
2018-02-09T05:47:29.491Z,72.30
2018-02-09T05:49:59.713Z,72.30
2018-02-09T05:52:30.695Z,72.00
2018-02-09T05:55:00.776Z,72.80
2018-02-09T05:57:30.159Z,72.80
2018-02-09T05:59:59.777Z,74.70
2018-02-09T06:02:28.980Z,74.40
2018-02-09T06:04:58.063Z,74.60
2018-02-09T06:07:28.130Z,74.70
2018-02-09T06:09:58.144Z,75.00
2018-02-09T06:12:28.322Z,75.00
2018-02-09T06:14:59.309Z,74.60
2018-02-09T06:17:28.444Z,74.80
2018-02-09T06:19:58.767Z,74.30
2018-02-09T06:22:28.199Z,74.20
2018-02-09T06:24:59.046Z,73.30
2018-02-09T06:27:28.807Z,73.30
2018-02-09T06:29:59.594Z,74.30
2018-02-09T06:32:28.974Z,74.00
2018-02-09T06:34:59.539Z,74.70
2018-02-09T06:37:28.766Z,74.40
2018-02-09T06:39:59.113Z,74.50
2018-02-09T06:42:28.340Z,74.60
2018-02-09T06:44:56.834Z,74.60
2018-02-09T06:47:26.166Z,74.90
2018-02-09T06:49:55.329Z,74.90
2018-02-09T06:52:24.387Z,74.20
2018-02-09T06:54:53.591Z,74.70
2018-02-09T06:57:22.431Z,74.30
2018-02-09T06:59:50.950Z,74.30
2018-02-09T07:02:20.060Z,74.60
2018-02-09T07:04:48.471Z,74.60
2018-02-09T07:07:16.766Z,75.20
2018-02-09T07:09:45.378Z,74.80
2018-02-09T07:12:13.683Z,75.20
2018-02-09T07:14:41.979Z,75.00
2018-02-09T07:17:10.315Z,74.70
2018-02-09T07:19:38.929Z,74.40
2018-02-09T07:22:08.970Z,74.90
2018-02-09T07:24:38.918Z,75.40
2018-02-09T07:27:08.247Z,75.40
2018-02-09T07:29:37.763Z,76.10
2018-02-09T07:32:06.536Z,76.00
2018-02-09T07:34:35.967Z,76.50
2018-02-09T07:37:05.106Z,76.50
2018-02-09T07:39:35.832Z,76.40
2018-02-09T07:42:05.485Z,76.10
2018-02-09T07:44:34.904Z,75.90
2018-02-09T07:47:05.310Z,75.70
2018-02-09T07:49:35.535Z,76.10
2018-02-09T07:52:04.726Z,75.90
2018-02-09T07:54:34.153Z,76.40
2018-02-09T07:57:03.844Z,76.70
2018-02-09T07:59:34.094Z,75.40
2018-02-09T08:02:03.355Z,75.40
2018-02-09T08:04:33.915Z,75.10
2018-02-09T08:07:02.795Z,75.80
2018-02-09T08:09:32.198Z,76.10
2018-02-09T08:12:01.368Z,75.70
2018-02-09T08:14:31.104Z,76.20
2018-02-09T08:17:00.189Z,76.20
2018-02-09T08:19:29.097Z,76.00
2018-02-09T08:21:59.086Z,77.40
2018-02-09T08:27:05.882Z,77.10
2018-02-09T08:29:35.085Z,76.80
2018-02-09T08:32:03.421Z,76.50
2018-02-09T08:34:31.760Z,76.80
2018-02-09T08:37:00.199Z,76.90
2018-02-09T08:39:29.362Z,76.50
2018-02-09T08:41:58.296Z,76.20
2018-02-09T08:44:27.635Z,75.90
2018-02-09T08:46:56.546Z,76.70
2018-02-09T08:49:26.411Z,76.80
2018-02-09T08:51:55.771Z,75.80
2018-02-09T08:54:25.277Z,75.70
2018-02-09T08:56:55.551Z,75.30
2018-02-09T08:59:24.199Z,75.30
2018-02-09T09:01:53.659Z,75.80
2018-02-09T09:04:23.342Z,75.70
2018-02-09T09:06:53.257Z,76.30
2018-02-09T09:09:23.186Z,76.20
2018-02-09T09:11:52.343Z,76.40
2018-02-09T09:14:21.386Z,76.20
2018-02-09T09:16:50.955Z,75.40
2018-02-09T09:19:20.788Z,75.40
2018-02-09T09:21:50.030Z,75.40
2018-02-09T09:24:18.998Z,75.90
2018-02-09T09:26:47.927Z,75.50
2018-02-09T09:29:17.227Z,75.20
2018-02-09T09:31:46.004Z,75.80
2018-02-09T09:34:14.334Z,76.50
2018-02-09T09:36:42.666Z,76.40
2018-02-09T09:39:10.971Z,76.20
2018-02-09T09:41:40.810Z,75.80
2018-02-09T09:44:09.147Z,75.80
2018-02-09T09:46:38.160Z,74.70
2018-02-09T09:49:07.178Z,73.60
2018-02-09T09:51:36.054Z,74.00
2018-02-09T09:54:05.494Z,74.30
2018-02-09T09:56:34.365Z,74.60
2018-02-09T09:59:04.202Z,75.30
2018-02-09T10:01:33.150Z,74.80
2018-02-09T10:04:01.703Z,75.30
2018-02-09T10:06:30.766Z,75.40
2018-02-09T10:08:59.103Z,74.70
2018-02-09T10:11:28.166Z,73.10
2018-02-09T10:13:56.498Z,73.00
2018-02-09T10:16:25.607Z,73.10
2018-02-09T10:18:54.672Z,73.00
2018-02-09T10:21:23.010Z,73.00
2018-02-09T10:23:52.119Z,72.90
2018-02-09T10:26:21.506Z,72.60
2018-02-09T10:28:49.813Z,72.50
2018-02-09T10:31:18.133Z,71.60
2018-02-09T10:33:46.486Z,71.60
2018-02-09T10:36:15.550Z,72.90
2018-02-09T10:38:43.898Z,72.80
2018-02-09T10:41:13.007Z,73.50
2018-02-09T10:43:41.379Z,73.50
2018-02-09T10:46:09.762Z,72.50
2018-02-09T10:48:38.106Z,72.50
2018-02-09T10:51:06.450Z,72.10
2018-02-09T10:53:34.754Z,71.00
2018-02-09T10:56:03.882Z,70.30
2018-02-09T10:58:32.205Z,70.30
2018-02-09T11:01:00.518Z,70.70
2018-02-09T11:03:28.818Z,70.50
2018-02-09T11:05:57.154Z,70.80
2018-02-09T11:08:25.450Z,70.40
2018-02-09T11:10:54.087Z,70.40
2018-02-09T11:13:27.983Z,69.80
2018-02-09T11:15:56.319Z,69.40
2018-02-09T11:18:25.419Z,69.60
2018-02-09T11:20:54.494Z,68.60
2018-02-09T11:23:23.078Z,68.60
2018-02-09T11:25:51.374Z,68.90
2018-02-09T11:28:19.684Z,68.30
2018-02-09T11:30:48.006Z,69.00
2018-02-09T11:33:17.103Z,67.60
2018-02-09T11:35:46.170Z,67.50
2018-02-09T11:38:14.530Z,67.40
2018-02-09T11:40:42.818Z,66.60
2018-02-09T11:43:11.150Z,66.40
2018-02-09T11:45:39.486Z,66.50
2018-02-09T11:48:07.830Z,64.80
2018-02-09T11:50:36.439Z,63.70
2018-02-09T11:53:04.738Z,62.70
2018-02-09T11:55:33.806Z,60.80
2018-02-09T11:58:02.139Z,60.70
2018-02-09T12:00:30.463Z,59.80
2018-02-09T12:02:58.795Z,59.60
2018-02-09T12:05:27.091Z,59.70
2018-02-09T12:07:55.591Z,59.60
2018-02-09T12:10:23.971Z,58.80
2018-02-09T12:12:52.270Z,58.40
2018-02-09T12:15:20.599Z,58.40
2018-02-09T12:17:48.894Z,59.60
2018-02-09T12:20:17.226Z,59.80
2018-02-09T12:22:45.518Z,59.40
2018-02-09T12:25:13.814Z,58.80
2018-02-09T12:27:43.662Z,58.10
2018-02-09T12:30:12.746Z,58.40
2018-02-09T12:32:41.075Z,58.30
2018-02-09T12:35:09.382Z,57.90
2018-02-09T12:37:37.699Z,58.00
2018-02-09T12:40:05.993Z,59.20
2018-02-09T12:42:34.286Z,58.70
2018-02-09T12:45:02.610Z,58.50
2018-02-09T12:47:31.671Z,59.00
2018-02-09T12:49:59.998Z,59.00
2018-02-09T12:52:29.063Z,58.30
2018-02-09T12:54:57.394Z,58.30
2018-02-09T12:57:25.722Z,57.60
2018-02-09T12:59:54.006Z,56.40
2018-02-09T13:02:22.302Z,57.30
2018-02-09T13:04:50.631Z,57.40
2018-02-09T13:07:19.026Z,56.70
2018-02-09T13:09:47.354Z,56.20
2018-02-09T13:15:14.195Z,55.70
2018-02-09T13:17:42.798Z,57.90
2018-02-09T13:20:11.086Z,59.50
2018-02-09T13:22:51.343Z,62.40
2018-02-09T13:25:19.914Z,62.40
2018-02-09T13:27:48.563Z,63.10
2018-02-09T13:30:16.866Z,62.90
2018-02-09T13:32:57.785Z,64.10
2018-02-09T13:35:26.118Z,64.10
2018-02-09T13:37:54.414Z,62.90
2018-02-09T13:40:22.789Z,63.30
2018-02-09T13:42:51.123Z,63.60
2018-02-09T13:45:19.434Z,63.00
2018-02-09T13:47:47.743Z,63.70
2018-02-09T13:50:16.150Z,63.90
2018-02-09T13:52:44.478Z,63.10
2018-02-09T13:55:13.570Z,63.20
2018-02-09T13:57:41.894Z,63.20
2018-02-09T14:00:10.238Z,63.20
2018-02-09T14:02:38.567Z,62.80
2018-02-09T14:05:06.858Z,63.00
2018-02-09T14:07:35.191Z,62.60
2018-02-09T14:10:03.490Z,61.50
2018-02-09T14:12:31.894Z,61.80
2018-02-09T14:15:00.189Z,62.60
2018-02-09T14:17:28.523Z,62.00
2018-02-09T14:19:56.818Z,60.60
2018-02-09T14:22:25.151Z,60.90
2018-02-09T14:24:53.487Z,59.70
2018-02-09T14:27:21.779Z,59.50
2018-02-09T14:29:50.070Z,59.10
2018-02-09T14:32:18.402Z,59.40
2018-02-09T14:34:46.691Z,59.20
2018-02-09T14:37:15.023Z,59.50
2018-02-09T14:39:43.360Z,59.10
2018-02-09T14:42:12.423Z,58.90
2018-02-09T14:44:40.746Z,59.50
2018-02-09T14:47:09.048Z,59.10
2018-02-09T14:49:37.379Z,59.00
2018-02-09T14:52:05.683Z,58.90
2018-02-09T14:54:34.030Z,59.20
2018-02-09T14:57:02.354Z,58.90
2018-02-09T14:59:31.452Z,59.50
2018-02-09T15:02:00.515Z,58.90
2018-02-09T15:04:28.802Z,58.90
2018-02-09T15:06:57.219Z,59.50
2018-02-09T15:09:25.549Z,59.50
2018-02-09T15:11:53.846Z,59.80
2018-02-09T15:14:22.177Z,60.00
2018-02-09T15:16:50.587Z,60.90
2018-02-09T15:19:19.694Z,61.70
2018-02-09T15:21:47.992Z,61.50
2018-02-09T15:24:17.095Z,61.20
2018-02-09T15:26:45.387Z,61.20
2018-02-09T15:29:14.455Z,61.60
2018-02-09T15:31:42.795Z,61.60
2018-02-09T15:34:11.890Z,62.40
2018-02-09T15:36:40.950Z,62.60
2018-02-09T15:39:09.287Z,62.60
2018-02-09T15:41:38.387Z,63.30
2018-02-09T15:44:06.682Z,63.30
2018-02-09T15:46:35.749Z,64.60
2018-02-09T15:49:04.086Z,63.80
2018-02-09T15:51:33.190Z,64.10
2018-02-09T15:54:02.288Z,63.50
2018-02-09T15:56:30.586Z,63.40
2018-02-09T15:58:59.694Z,64.20
2018-02-09T16:01:28.795Z,64.50
2018-02-09T16:03:57.135Z,64.50
2018-02-09T16:06:25.431Z,65.10
2018-02-09T16:08:53.733Z,65.60
2018-02-09T16:11:22.058Z,66.00
2018-02-09T16:13:50.367Z,65.60
2018-02-09T16:16:19.695Z,65.50
2018-02-09T16:18:47.994Z,65.50
2018-02-09T16:21:16.290Z,65.40
2018-02-09T16:23:44.623Z,66.10
2018-02-09T16:26:12.926Z,65.90
2018-02-09T16:28:41.994Z,66.30
2018-02-09T16:31:10.335Z,66.30
2018-02-09T16:33:39.439Z,66.20
2018-02-09T16:36:08.831Z,65.90
2018-02-09T16:38:37.131Z,65.90
2018-02-09T16:41:06.203Z,66.20
2018-02-09T16:43:34.568Z,66.20
2018-02-09T16:46:02.863Z,66.20
2018-02-09T16:48:31.287Z,66.60
2018-02-09T16:50:59.699Z,66.90
2018-02-09T16:53:28.134Z,67.20
2018-02-09T16:55:56.443Z,66.90
2018-02-09T16:58:24.744Z,67.00
2018-02-09T17:00:53.082Z,67.10
2018-02-09T17:03:21.386Z,66.90
2018-02-09T17:05:49.686Z,67.10
2018-02-09T17:08:18.111Z,67.30
2018-02-09T17:10:46.411Z,67.50
2018-02-09T17:13:14.909Z,67.60
2018-02-09T17:15:43.219Z,67.70
2018-02-09T17:18:12.288Z,67.70
2018-02-09T17:20:40.626Z,67.70
2018-02-09T17:23:08.936Z,67.80
2018-02-09T17:25:37.871Z,67.90
2018-02-09T17:28:06.999Z,68.30
2018-02-09T17:30:35.442Z,68.20
2018-02-09T17:33:03.771Z,68.60
2018-02-09T17:35:32.170Z,68.90
2018-02-09T17:38:00.514Z,69.60
2018-02-09T17:40:28.810Z,69.80
2018-02-09T17:42:57.150Z,69.90
2018-02-09T17:45:26.254Z,69.50
2018-02-09T17:47:55.354Z,69.40
2018-02-09T17:50:23.690Z,69.40
2018-02-09T17:52:53.062Z,69.40
2018-02-09T17:55:21.467Z,69.40
2018-02-09T17:57:50.544Z,69.40
2018-02-09T18:00:18.883Z,69.40
2018-02-09T18:02:47.214Z,69.10
2018-02-09T18:05:16.078Z,69.20
2018-02-09T18:07:44.374Z,69.40
2018-02-09T18:10:12.674Z,69.80
2018-02-09T18:12:41.010Z,69.70
2018-02-09T18:15:09.403Z,69.60
2018-02-09T18:17:37.750Z,69.30
2018-02-09T18:20:06.046Z,69.00
2018-02-09T18:22:34.342Z,69.20
2018-02-09T18:25:02.766Z,69.20
2018-02-09T18:27:31.874Z,69.60
2018-02-09T18:30:00.262Z,69.00
2018-02-09T18:32:28.603Z,69.10
2018-02-09T18:34:56.934Z,69.40
2018-02-09T18:37:25.266Z,69.30
2018-02-09T18:39:53.607Z,69.00
2018-02-09T18:42:21.915Z,69.20
2018-02-09T18:44:50.251Z,68.20
2018-02-09T18:47:18.595Z,68.80
2018-02-09T18:49:46.931Z,68.30
2018-02-09T18:52:15.262Z,69.30
2018-02-09T18:54:43.598Z,68.40
2018-02-09T18:57:11.894Z,68.40
2018-02-09T18:59:40.230Z,68.00
2018-02-09T19:02:08.563Z,68.20
2018-02-09T19:04:36.915Z,68.20
2018-02-09T19:07:05.260Z,68.20
2018-02-09T19:09:34.296Z,68.20
2018-02-09T19:12:02.626Z,68.20
2018-02-09T19:14:31.727Z,67.90
2018-02-09T19:17:00.802Z,68.00
2018-02-09T19:19:29.215Z,68.00
2018-02-09T19:21:57.573Z,67.90
2018-02-09T19:24:26.082Z,67.90
2018-02-09T19:26:54.884Z,68.20
2018-02-09T19:29:23.480Z,68.50
2018-02-09T19:31:51.937Z,68.80
2018-02-09T19:34:20.673Z,69.70
2018-02-09T19:36:49.269Z,69.70
2018-02-09T19:39:19.401Z,69.40
2018-02-09T19:41:48.508Z,69.40
2018-02-09T19:44:18.130Z,69.40
2018-02-09T19:46:46.519Z,69.60
2018-02-09T19:49:15.116Z,70.00
2018-02-09T19:51:44.246Z,68.80
2018-02-09T19:54:13.747Z,69.00
2018-02-09T19:56:42.446Z,68.90
2018-02-09T19:59:10.827Z,69.00
2018-02-09T20:01:39.126Z,68.70
2018-02-09T20:04:07.466Z,68.40
2018-02-09T20:06:35.802Z,69.40
2018-02-09T20:09:05.619Z,69.10
2018-02-09T20:11:33.946Z,69.10
2018-02-09T20:14:03.047Z,69.60
2018-02-09T20:16:32.162Z,68.50
2018-02-09T20:19:01.342Z,68.70
2018-02-09T20:21:29.642Z,68.70
2018-02-09T20:23:57.978Z,68.80
2018-02-09T20:26:26.322Z,69.20
2018-02-09T20:28:56.136Z,69.60
2018-02-09T20:31:24.711Z,69.50
2018-02-09T20:33:53.010Z,70.20
2018-02-09T20:36:21.319Z,69.60
2018-02-09T20:38:49.719Z,69.50
2018-02-09T20:41:18.195Z,70.50
2018-02-09T20:43:46.519Z,69.80
2018-02-09T20:46:15.595Z,70.50
2018-02-09T20:48:44.706Z,70.60
2018-02-09T20:51:13.022Z,70.60
2018-02-09T20:53:42.093Z,69.90
2018-02-09T20:56:10.607Z,69.80
2018-02-09T20:58:38.980Z,70.20
2018-02-09T21:01:07.372Z,70.50
2018-02-09T21:03:35.707Z,70.50
2018-02-09T21:06:04.306Z,70.30
2018-02-09T21:08:32.668Z,69.90
2018-02-09T21:11:00.970Z,70.10
2018-02-09T21:13:30.371Z,71.50
2018-02-09T21:15:59.662Z,71.50
2018-02-09T21:18:27.958Z,70.70
2018-02-09T21:20:57.082Z,71.30
2018-02-09T21:23:25.419Z,71.30
2018-02-09T21:25:53.727Z,71.00
2018-02-09T21:28:22.066Z,70.50
2018-02-09T21:30:51.140Z,71.20
2018-02-09T21:33:19.491Z,71.20
2018-02-09T21:35:47.895Z,71.30
2018-02-09T21:38:16.222Z,71.10
2018-02-09T21:40:44.526Z,71.10
2018-02-09T21:43:13.630Z,71.50
2018-02-09T21:45:42.939Z,71.60
2018-02-09T21:48:11.242Z,71.50
2018-02-09T21:50:40.314Z,72.00
2018-02-09T21:53:08.658Z,72.00
2018-02-09T21:55:37.014Z,72.20
2018-02-09T21:58:05.366Z,72.50
2018-02-09T22:00:33.675Z,73.00
2018-02-09T22:03:01.984Z,72.40
2018-02-09T22:05:30.326Z,72.50
2018-02-09T22:07:58.679Z,73.00
2018-02-09T22:10:27.746Z,72.90
2018-02-09T22:12:56.094Z,72.90
2018-02-09T22:15:24.399Z,73.20
2018-02-09T22:17:52.734Z,73.10
2018-02-09T22:20:21.074Z,73.10
2018-02-09T22:22:49.622Z,73.50
2018-02-09T22:25:17.935Z,73.70
2018-02-09T22:27:47.006Z,73.90
2018-02-09T22:30:15.347Z,73.90
2018-02-09T22:32:43.654Z,74.20
2018-02-09T22:35:11.994Z,73.90
2018-02-09T22:37:41.117Z,74.60
2018-02-09T22:40:10.294Z,74.10
2018-02-09T22:42:38.587Z,74.10
2018-02-09T22:45:06.931Z,74.10
2018-02-09T22:47:35.270Z,74.10
2018-02-09T22:50:03.579Z,74.10
2018-02-09T22:52:32.692Z,73.50
2018-02-09T22:55:01.796Z,73.30
2018-02-09T22:57:30.865Z,74.20
2018-02-09T22:59:59.218Z,74.20
2018-02-09T23:02:27.550Z,73.90
2018-02-09T23:04:55.854Z,74.20
2018-02-09T23:07:24.203Z,74.70
2018-02-09T23:09:52.503Z,74.90
2018-02-09T23:12:20.842Z,75.10
2018-02-09T23:14:49.941Z,75.20
2018-02-09T23:17:18.255Z,75.20
2018-02-09T23:19:47.166Z,75.10
2018-02-09T23:22:15.506Z,74.90
2018-02-09T23:24:43.839Z,75.00
2018-02-09T23:27:12.149Z,74.80
2018-02-09T23:29:40.482Z,75.00
2018-02-09T23:32:08.786Z,75.20
2018-02-09T23:34:37.902Z,75.70
2018-02-09T23:37:06.975Z,75.70
2018-02-09T23:39:35.493Z,75.60
2018-02-09T23:42:03.798Z,75.80
2018-02-09T23:44:32.867Z,75.80
2018-02-09T23:47:01.205Z,75.80
2018-02-09T23:49:29.542Z,75.70
2018-02-09T23:51:57.882Z,75.50
2018-02-09T23:54:26.983Z,75.90
2018-02-09T23:56:56.082Z,76.00
2018-02-09T23:59:25.190Z,75.90
